Terminal Aerodrome Forecast
Issued by NWS

Home | Current Version | Previous Version | Text Only | Print | Product List | Glossary On
Versions: 1 2 3 4 5 6 7 8 9 10 11 12 13
000
FTUS45 KABQ 300529
TAFSAF
TAF
KSAF 300529Z 3006/3106 13015G23KT P6SM FEW050 SCT110
     FM300900 14011KT P6SM SCT050 SCT110
     FM301300 15013G21KT P6SM SCT050
     FM301800 19010G18KT P6SM SCT060
     FM302300 16011KT P6SM SCT060 BKN130=

USA.gov is the U.S. government's official web portal to all federal, state and local government web resources and services.